sensor_id;sensor_type;location;lat;lon;timestamp;P1;durP1;ratioP1;P2;durP2;ratioP2
4547;SDS011;2286;51.570;7.090;2023-04-03T00:02:04;8.02;;;6.82;;
4547;SDS011;2286;51.570;7.090;2023-04-03T00:04:31;7.32;;;6.07;;
4547;SDS011;2286;51.570;7.090;2023-04-03T00:06:58;8.48;;;6.80;;
4547;SDS011;2286;51.570;7.090;2023-04-03T00:09:26;8.30;;;6.57;;
4547;SDS011;2286;51.570;7.090;2023-04-03T00:11:55;8.05;;;6.82;;
4547;SDS011;2286;51.570;7.090;2023-04-03T00:14:22;7.88;;;6.72;;
4547;SDS011;2286;51.570;7.090;2023-04-03T00:16:49;6.75;;;6.18;;
4547;SDS011;2286;51.570;7.090;2023-04-03T00:19:16;8.00;;;6.28;;
4547;SDS011;2286;51.570;7.090;2023-04-03T00:21:44;6.90;;;6.20;;
4547;SDS011;2286;51.570;7.090;2023-04-03T00:24:12;7.50;;;6.80;;
4547;SDS011;2286;51.570;7.090;2023-04-03T00:26:39;8.88;;;6.40;;
4547;SDS011;2286;51.570;7.090;2023-04-03T00:29:08;7.32;;;6.45;;
4547;SDS011;2286;51.570;7.090;2023-04-03T00:31:35;9.13;;;6.10;;
4547;SDS011;2286;51.570;7.090;2023-04-03T00:34:03;8.80;;;6.35;;
4547;SDS011;2286;51.570;7.090;2023-04-03T00:36:30;7.13;;;5.40;;
4547;SDS011;2286;51.570;7.090;2023-04-03T00:38:57;9.18;;;5.95;;
4547;SDS011;2286;51.570;7.090;2023-04-03T00:41:25;6.38;;;5.53;;
4547;SDS011;2286;51.570;7.090;2023-04-03T00:43:52;5.43;;;4.93;;
4547;SDS011;2286;51.570;7.090;2023-04-03T00:46:21;6.45;;;5.20;;
4547;SDS011;2286;51.570;7.090;2023-04-03T00:48:48;6.50;;;4.45;;
4547;SDS011;2286;51.570;7.090;2023-04-03T00:51:18;6.35;;;4.80;;
4547;SDS011;2286;51.570;7.090;2023-04-03T00:53:50;5.63;;;4.13;;
4547;SDS011;2286;51.570;7.090;2023-04-03T00:56:22;6.43;;;4.10;;
4547;SDS011;2286;51.570;7.090;2023-04-03T00:58:53;4.70;;;4.05;;
4547;SDS011;2286;51.570;7.090;2023-04-03T01:01:25;5.80;;;3.25;;
4547;SDS011;2286;51.570;7.090;2023-04-03T01:03:54;3.65;;;3.05;;
4547;SDS011;2286;51.570;7.090;2023-04-03T01:06:23;3.30;;;2.80;;
4547;SDS011;2286;51.570;7.090;2023-04-03T01:08:52;3.80;;;2.83;;
4547;SDS011;2286;51.570;7.090;2023-04-03T01:11:21;4.88;;;2.92;;
4547;SDS011;2286;51.570;7.090;2023-04-03T01:13:48;6.45;;;3.00;;
4547;SDS011;2286;51.570;7.090;2023-04-03T01:16:16;3.95;;;2.65;;
4547;SDS011;2286;51.570;7.090;2023-04-03T01:18:44;3.53;;;2.95;;
4547;SDS011;2286;51.570;7.090;2023-04-03T01:24:32;4.55;;;2.45;;
4547;SDS011;2286;51.570;7.090;2023-04-03T01:27:01;8.50;;;3.22;;
4547;SDS011;2286;51.570;7.090;2023-04-03T01:29:30;4.57;;;2.78;;
4547;SDS011;2286;51.570;7.090;2023-04-03T01:31:59;2.70;;;2.05;;
4547;SDS011;2286;51.570;7.090;2023-04-03T01:34:27;8.35;;;3.95;;
4547;SDS011;2286;51.570;7.090;2023-04-03T01:36:55;4.50;;;2.22;;
4547;SDS011;2286;51.570;7.090;2023-04-03T01:39:22;3.38;;;2.00;;
4547;SDS011;2286;51.570;7.090;2023-04-03T01:41:49;4.63;;;2.22;;
4547;SDS011;2286;51.570;7.090;2023-04-03T01:44:16;5.28;;;2.03;;
4547;SDS011;2286;51.570;7.090;2023-04-03T01:46:43;4.65;;;2.53;;
4547;SDS011;2286;51.570;7.090;2023-04-03T01:49:12;4.22;;;2.10;;
4547;SDS011;2286;51.570;7.090;2023-04-03T01:51:38;6.85;;;2.30;;
4547;SDS011;2286;51.570;7.090;2023-04-03T01:54:05;4.57;;;2.10;;
4547;SDS011;2286;51.570;7.090;2023-04-03T01:56:32;4.97;;;1.80;;
4547;SDS011;2286;51.570;7.090;2023-04-03T01:58:59;5.38;;;2.00;;
4547;SDS011;2286;51.570;7.090;2023-04-03T02:01:26;4.72;;;2.00;;
4547;SDS011;2286;51.570;7.090;2023-04-03T02:03:53;7.28;;;2.28;;
4547;SDS011;2286;51.570;7.090;2023-04-03T02:06:22;5.30;;;2.22;;
4547;SDS011;2286;51.570;7.090;2023-04-03T02:08:49;6.68;;;2.25;;
4547;SDS011;2286;51.570;7.090;2023-04-03T02:11:16;5.72;;;2.22;;
4547;SDS011;2286;51.570;7.090;2023-04-03T02:13:43;5.70;;;2.40;;
4547;SDS011;2286;51.570;7.090;2023-04-03T02:16:10;3.08;;;2.05;;
4547;SDS011;2286;51.570;7.090;2023-04-03T02:18:38;6.13;;;2.10;;
4547;SDS011;2286;51.570;7.090;2023-04-03T02:21:05;3.03;;;2.15;;
4547;SDS011;2286;51.570;7.090;2023-04-03T02:23:34;4.93;;;2.20;;
4547;SDS011;2286;51.570;7.090;2023-04-03T02:26:03;3.85;;;2.50;;
4547;SDS011;2286;51.570;7.090;2023-04-03T02:28:31;6.53;;;2.72;;
4547;SDS011;2286;51.570;7.090;2023-04-03T02:30:58;4.55;;;1.70;;
4547;SDS011;2286;51.570;7.090;2023-04-03T02:33:25;5.85;;;2.42;;
4547;SDS011;2286;51.570;7.090;2023-04-03T02:35:53;4.50;;;2.05;;
4547;SDS011;2286;51.570;7.090;2023-04-03T02:38:20;4.50;;;1.90;;
4547;SDS011;2286;51.570;7.090;2023-04-03T02:40:49;3.60;;;1.85;;
4547;SDS011;2286;51.570;7.090;2023-04-03T02:43:17;7.22;;;2.25;;
4547;SDS011;2286;51.570;7.090;2023-04-03T02:45:44;6.45;;;2.10;;
4547;SDS011;2286;51.570;7.090;2023-04-03T02:48:11;2.72;;;2.05;;
4547;SDS011;2286;51.570;7.090;2023-04-03T02:50:39;17.80;;;4.00;;
4547;SDS011;2286;51.570;7.090;2023-04-03T02:53:07;3.88;;;2.00;;
4547;SDS011;2286;51.570;7.090;2023-04-03T02:55:34;2.78;;;2.05;;
4547;SDS011;2286;51.570;7.090;2023-04-03T02:58:02;3.50;;;1.70;;
4547;SDS011;2286;51.570;7.090;2023-04-03T03:00:29;4.63;;;1.90;;
4547;SDS011;2286;51.570;7.090;2023-04-03T03:02:56;3.92;;;2.13;;
4547;SDS011;2286;51.570;7.090;2023-04-03T03:05:23;7.97;;;2.10;;
4547;SDS011;2286;51.570;7.090;2023-04-03T03:07:50;4.20;;;2.10;;
4547;SDS011;2286;51.570;7.090;2023-04-03T03:10:16;7.00;;;2.17;;
4547;SDS011;2286;51.570;7.090;2023-04-03T03:12:43;6.80;;;2.40;;
4547;SDS011;2286;51.570;7.090;2023-04-03T03:15:11;4.97;;;2.28;;
4547;SDS011;2286;51.570;7.090;2023-04-03T03:17:38;3.90;;;2.15;;
4547;SDS011;2286;51.570;7.090;2023-04-03T03:20:05;3.70;;;1.88;;
4547;SDS011;2286;51.570;7.090;2023-04-03T03:22:33;2.95;;;1.92;;
4547;SDS011;2286;51.570;7.090;2023-04-03T03:25:00;6.95;;;2.45;;
4547;SDS011;2286;51.570;7.090;2023-04-03T03:27:28;5.25;;;2.20;;
4547;SDS011;2286;51.570;7.090;2023-04-03T03:29:55;8.30;;;2.20;;
4547;SDS011;2286;51.570;7.090;2023-04-03T03:32:23;7.45;;;2.63;;
4547;SDS011;2286;51.570;7.090;2023-04-03T03:34:50;6.55;;;2.95;;
4547;SDS011;2286;51.570;7.090;2023-04-03T03:37:17;2.80;;;1.70;;
4547;SDS011;2286;51.570;7.090;2023-04-03T03:39:43;8.00;;;2.20;;
4547;SDS011;2286;51.570;7.090;2023-04-03T03:42:10;5.97;;;2.05;;
4547;SDS011;2286;51.570;7.090;2023-04-03T03:44:37;4.93;;;2.10;;
4547;SDS011;2286;51.570;7.090;2023-04-03T03:47:04;4.82;;;2.35;;
4547;SDS011;2286;51.570;7.090;2023-04-03T03:49:32;4.63;;;2.17;;
4547;SDS011;2286;51.570;7.090;2023-04-03T03:52:00;4.50;;;2.33;;
4547;SDS011;2286;51.570;7.090;2023-04-03T03:54:27;6.72;;;2.08;;
4547;SDS011;2286;51.570;7.090;2023-04-03T03:56:53;6.35;;;2.70;;
4547;SDS011;2286;51.570;7.090;2023-04-03T03:59:20;3.35;;;2.30;;
4547;SDS011;2286;51.570;7.090;2023-04-03T04:01:47;5.55;;;2.67;;
4547;SDS011;2286;51.570;7.090;2023-04-03T04:04:14;6.28;;;2.50;;
4547;SDS011;2286;51.570;7.090;2023-04-03T04:06:42;7.47;;;2.55;;
4547;SDS011;2286;51.570;7.090;2023-04-03T04:09:09;5.60;;;2.22;;
4547;SDS011;2286;51.570;7.090;2023-04-03T04:11:36;6.93;;;3.25;;
4547;SDS011;2286;51.570;7.090;2023-04-03T04:14:04;9.00;;;2.25;;
4547;SDS011;2286;51.570;7.090;2023-04-03T04:16:31;8.80;;;2.28;;
4547;SDS011;2286;51.570;7.090;2023-04-03T04:18:58;7.00;;;2.40;;
4547;SDS011;2286;51.570;7.090;2023-04-03T04:21:25;7.25;;;2.80;;
4547;SDS011;2286;51.570;7.090;2023-04-03T04:23:53;4.78;;;2.60;;
4547;SDS011;2286;51.570;7.090;2023-04-03T04:26:20;10.00;;;3.08;;
4547;SDS011;2286;51.570;7.090;2023-04-03T04:28:47;5.10;;;2.45;;
4547;SDS011;2286;51.570;7.090;2023-04-03T04:31:14;8.40;;;3.47;;
4547;SDS011;2286;51.570;7.090;2023-04-03T04:33:40;7.82;;;2.80;;
4547;SDS011;2286;51.570;7.090;2023-04-03T04:36:07;8.98;;;3.03;;
4547;SDS011;2286;51.570;7.090;2023-04-03T04:38:34;4.88;;;2.95;;
4547;SDS011;2286;51.570;7.090;2023-04-03T04:41:02;4.55;;;2.33;;
4547;SDS011;2286;51.570;7.090;2023-04-03T04:43:29;8.48;;;2.65;;
4547;SDS011;2286;51.570;7.090;2023-04-03T04:46:03;8.63;;;3.00;;
4547;SDS011;2286;51.570;7.090;2023-04-03T04:48:31;8.00;;;3.22;;
4547;SDS011;2286;51.570;7.090;2023-04-03T04:50:57;12.52;;;3.55;;
4547;SDS011;2286;51.570;7.090;2023-04-03T04:53:24;7.90;;;3.15;;
4547;SDS011;2286;51.570;7.090;2023-04-03T04:55:51;5.88;;;2.95;;
4547;SDS011;2286;51.570;7.090;2023-04-03T04:58:20;10.10;;;3.95;;
4547;SDS011;2286;51.570;7.090;2023-04-03T05:00:46;3.08;;;2.63;;
4547;SDS011;2286;51.570;7.090;2023-04-03T05:03:13;13.20;;;3.50;;
4547;SDS011;2286;51.570;7.090;2023-04-03T05:05:41;9.35;;;3.40;;
4547;SDS011;2286;51.570;7.090;2023-04-03T05:08:07;6.68;;;3.10;;
4547;SDS011;2286;51.570;7.090;2023-04-03T05:10:34;7.70;;;4.45;;
4547;SDS011;2286;51.570;7.090;2023-04-03T05:13:01;5.45;;;3.28;;
4547;SDS011;2286;51.570;7.090;2023-04-03T05:15:29;7.05;;;3.65;;
4547;SDS011;2286;51.570;7.090;2023-04-03T05:17:56;8.00;;;3.45;;
4547;SDS011;2286;51.570;7.090;2023-04-03T05:20:23;7.80;;;2.85;;
4547;SDS011;2286;51.570;7.090;2023-04-03T05:22:49;6.55;;;3.20;;
4547;SDS011;2286;51.570;7.090;2023-04-03T05:25:16;4.43;;;2.95;;
4547;SDS011;2286;51.570;7.090;2023-04-03T05:27:43;7.80;;;3.00;;
4547;SDS011;2286;51.570;7.090;2023-04-03T05:30:10;5.18;;;3.05;;
4547;SDS011;2286;51.570;7.090;2023-04-03T05:32:39;7.95;;;3.28;;
4547;SDS011;2286;51.570;7.090;2023-04-03T05:35:06;4.40;;;2.75;;
4547;SDS011;2286;51.570;7.090;2023-04-03T05:37:33;4.43;;;3.05;;
4547;SDS011;2286;51.570;7.090;2023-04-03T05:40:00;5.57;;;2.78;;
4547;SDS011;2286;51.570;7.090;2023-04-03T05:42:27;13.20;;;3.20;;
4547;SDS011;2286;51.570;7.090;2023-04-03T05:44:54;8.77;;;3.65;;
4547;SDS011;2286;51.570;7.090;2023-04-03T05:47:21;7.60;;;3.13;;
4547;SDS011;2286;51.570;7.090;2023-04-03T05:49:49;5.57;;;2.90;;
4547;SDS011;2286;51.570;7.090;2023-04-03T05:52:17;6.55;;;2.88;;
4547;SDS011;2286;51.570;7.090;2023-04-03T05:54:48;6.10;;;3.05;;
4547;SDS011;2286;51.570;7.090;2023-04-03T05:57:15;6.82;;;2.50;;
4547;SDS011;2286;51.570;7.090;2023-04-03T05:59:43;13.35;;;3.00;;
4547;SDS011;2286;51.570;7.090;2023-04-03T06:02:10;6.75;;;2.40;;
4547;SDS011;2286;51.570;7.090;2023-04-03T06:04:37;12.98;;;2.85;;
4547;SDS011;2286;51.570;7.090;2023-04-03T06:07:06;7.22;;;3.08;;
4547;SDS011;2286;51.570;7.090;2023-04-03T06:09:36;6.35;;;3.08;;
4547;SDS011;2286;51.570;7.090;2023-04-03T06:12:02;5.63;;;2.38;;
4547;SDS011;2286;51.570;7.090;2023-04-03T06:14:30;8.73;;;2.60;;
4547;SDS011;2286;51.570;7.090;2023-04-03T06:16:56;10.50;;;2.55;;
4547;SDS011;2286;51.570;7.090;2023-04-03T06:19:24;7.50;;;2.90;;
4547;SDS011;2286;51.570;7.090;2023-04-03T06:21:51;6.47;;;2.97;;
4547;SDS011;2286;51.570;7.090;2023-04-03T06:24:20;5.38;;;2.13;;
4547;SDS011;2286;51.570;7.090;2023-04-03T06:26:49;4.75;;;2.22;;
4547;SDS011;2286;51.570;7.090;2023-04-03T06:29:17;6.40;;;2.65;;
4547;SDS011;2286;51.570;7.090;2023-04-03T06:31:44;5.80;;;2.60;;
4547;SDS011;2286;51.570;7.090;2023-04-03T06:34:12;3.60;;;2.50;;
4547;SDS011;2286;51.570;7.090;2023-04-03T06:36:40;5.07;;;2.50;;
4547;SDS011;2286;51.570;7.090;2023-04-03T06:39:08;5.88;;;2.00;;
4547;SDS011;2286;51.570;7.090;2023-04-03T06:41:40;7.40;;;3.15;;
4547;SDS011;2286;51.570;7.090;2023-04-03T06:44:07;8.05;;;2.35;;
4547;SDS011;2286;51.570;7.090;2023-04-03T06:46:36;4.47;;;2.22;;
4547;SDS011;2286;51.570;7.090;2023-04-03T06:49:04;5.47;;;2.00;;
4547;SDS011;2286;51.570;7.090;2023-04-03T06:51:32;4.57;;;2.13;;
4547;SDS011;2286;51.570;7.090;2023-04-03T06:54:00;10.32;;;2.70;;
4547;SDS011;2286;51.570;7.090;2023-04-03T06:56:28;5.00;;;2.50;;
4547;SDS011;2286;51.570;7.090;2023-04-03T06:58:57;5.82;;;2.60;;
4547;SDS011;2286;51.570;7.090;2023-04-03T07:01:24;7.10;;;2.83;;
4547;SDS011;2286;51.570;7.090;2023-04-03T07:03:52;4.72;;;2.38;;
4547;SDS011;2286;51.570;7.090;2023-04-03T07:06:19;5.30;;;2.42;;
4547;SDS011;2286;51.570;7.090;2023-04-03T07:08:46;7.88;;;3.00;;
4547;SDS011;2286;51.570;7.090;2023-04-03T07:11:14;4.35;;;2.30;;
4547;SDS011;2286;51.570;7.090;2023-04-03T07:13:41;3.67;;;2.20;;
4547;SDS011;2286;51.570;7.090;2023-04-03T07:16:09;6.53;;;2.47;;
4547;SDS011;2286;51.570;7.090;2023-04-03T07:18:36;5.93;;;2.00;;
4547;SDS011;2286;51.570;7.090;2023-04-03T07:21:03;3.40;;;2.05;;
4547;SDS011;2286;51.570;7.090;2023-04-03T07:23:31;5.78;;;2.55;;
4547;SDS011;2286;51.570;7.090;2023-04-03T07:25:57;5.18;;;2.38;;
4547;SDS011;2286;51.570;7.090;2023-04-03T07:28:25;5.22;;;2.45;;
4547;SDS011;2286;51.570;7.090;2023-04-03T07:30:52;2.90;;;2.20;;
4547;SDS011;2286;51.570;7.090;2023-04-03T07:33:22;3.55;;;2.05;;
4547;SDS011;2286;51.570;7.090;2023-04-03T07:35:49;5.63;;;2.28;;
4547;SDS011;2286;51.570;7.090;2023-04-03T07:38:16;6.35;;;2.30;;
4547;SDS011;2286;51.570;7.090;2023-04-03T07:40:45;3.90;;;2.00;;
4547;SDS011;2286;51.570;7.090;2023-04-03T07:43:12;6.10;;;2.47;;
4547;SDS011;2286;51.570;7.090;2023-04-03T07:45:39;4.13;;;1.92;;
4547;SDS011;2286;51.570;7.090;2023-04-03T07:48:06;4.13;;;2.22;;
4547;SDS011;2286;51.570;7.090;2023-04-03T07:50:34;4.18;;;2.80;;
4547;SDS011;2286;51.570;7.090;2023-04-03T07:53:01;4.07;;;2.20;;
4547;SDS011;2286;51.570;7.090;2023-04-03T07:55:28;4.15;;;2.53;;
4547;SDS011;2286;51.570;7.090;2023-04-03T07:57:55;6.85;;;2.80;;
4547;SDS011;2286;51.570;7.090;2023-04-03T08:00:22;4.97;;;2.33;;
4547;SDS011;2286;51.570;7.090;2023-04-03T08:02:49;5.25;;;2.35;;
4547;SDS011;2286;51.570;7.090;2023-04-03T08:05:17;4.38;;;2.60;;
4547;SDS011;2286;51.570;7.090;2023-04-03T08:07:46;6.50;;;2.00;;
4547;SDS011;2286;51.570;7.090;2023-04-03T08:10:13;4.00;;;1.90;;
4547;SDS011;2286;51.570;7.090;2023-04-03T08:12:41;4.97;;;2.45;;
4547;SDS011;2286;51.570;7.090;2023-04-03T08:15:08;6.22;;;1.90;;
4547;SDS011;2286;51.570;7.090;2023-04-03T08:17:35;3.60;;;1.90;;
4547;SDS011;2286;51.570;7.090;2023-04-03T08:20:02;7.00;;;2.00;;
4547;SDS011;2286;51.570;7.090;2023-04-03T08:22:31;5.60;;;2.05;;
4547;SDS011;2286;51.570;7.090;2023-04-03T08:25:00;2.38;;;1.80;;
4547;SDS011;2286;51.570;7.090;2023-04-03T08:27:27;6.25;;;3.17;;
4547;SDS011;2286;51.570;7.090;2023-04-03T08:29:53;5.18;;;1.88;;
4547;SDS011;2286;51.570;7.090;2023-04-03T08:32:20;3.67;;;2.10;;
4547;SDS011;2286;51.570;7.090;2023-04-03T08:34:47;3.22;;;1.90;;
4547;SDS011;2286;51.570;7.090;2023-04-03T08:37:14;4.53;;;2.33;;
4547;SDS011;2286;51.570;7.090;2023-04-03T08:39:42;3.80;;;1.98;;
4547;SDS011;2286;51.570;7.090;2023-04-03T08:42:14;4.20;;;2.10;;
4547;SDS011;2286;51.570;7.090;2023-04-03T08:44:46;4.50;;;2.30;;
4547;SDS011;2286;51.570;7.090;2023-04-03T08:47:22;3.88;;;2.58;;
4547;SDS011;2286;51.570;7.090;2023-04-03T08:49:53;4.35;;;2.30;;
4547;SDS011;2286;51.570;7.090;2023-04-03T08:52:24;4.18;;;2.70;;
4547;SDS011;2286;51.570;7.090;2023-04-03T08:55:00;2.40;;;1.80;;
4547;SDS011;2286;51.570;7.090;2023-04-03T08:57:30;4.22;;;2.03;;
4547;SDS011;2286;51.570;7.090;2023-04-03T09:00:15;3.22;;;1.83;;
4547;SDS011;2286;51.570;7.090;2023-04-03T09:02:44;3.85;;;2.10;;
4547;SDS011;2286;51.570;7.090;2023-04-03T09:05:14;4.30;;;1.90;;
4547;SDS011;2286;51.570;7.090;2023-04-03T09:07:42;2.00;;;1.80;;
4547;SDS011;2286;51.570;7.090;2023-04-03T09:10:12;2.38;;;1.65;;
4547;SDS011;2286;51.570;7.090;2023-04-03T09:12:42;5.63;;;1.80;;
4547;SDS011;2286;51.570;7.090;2023-04-03T09:15:16;3.63;;;1.47;;
4547;SDS011;2286;51.570;7.090;2023-04-03T09:17:49;3.80;;;1.90;;
4547;SDS011;2286;51.570;7.090;2023-04-03T09:20:24;2.00;;;1.30;;
4547;SDS011;2286;51.570;7.090;2023-04-03T09:22:57;3.50;;;1.57;;
4547;SDS011;2286;51.570;7.090;2023-04-03T09:25:25;1.77;;;1.17;;
4547;SDS011;2286;51.570;7.090;2023-04-03T09:27:56;3.40;;;1.47;;
4547;SDS011;2286;51.570;7.090;2023-04-03T09:30:24;1.47;;;1.10;;
4547;SDS011;2286;51.570;7.090;2023-04-03T09:32:53;2.23;;;1.33;;
4547;SDS011;2286;51.570;7.090;2023-04-03T09:35:23;1.70;;;1.27;;
4547;SDS011;2286;51.570;7.090;2023-04-03T09:37:51;2.30;;;1.40;;
4547;SDS011;2286;51.570;7.090;2023-04-03T09:40:30;2.60;;;1.40;;
4547;SDS011;2286;51.570;7.090;2023-04-03T09:43:02;2.53;;;1.90;;
4547;SDS011;2286;51.570;7.090;2023-04-03T09:45:51;3.10;;;1.50;;
4547;SDS011;2286;51.570;7.090;2023-04-03T09:48:19;3.30;;;1.40;;
4547;SDS011;2286;51.570;7.090;2023-04-03T09:50:58;7.00;;;1.67;;
4547;SDS011;2286;51.570;7.090;2023-04-03T09:53:27;2.27;;;1.93;;
4547;SDS011;2286;51.570;7.090;2023-04-03T09:55:57;2.10;;;1.10;;
4547;SDS011;2286;51.570;7.090;2023-04-03T09:58:27;2.60;;;1.30;;
4547;SDS011;2286;51.570;7.090;2023-04-03T10:00:57;2.10;;;1.30;;
4547;SDS011;2286;51.570;7.090;2023-04-03T10:03:27;1.47;;;1.03;;
4547;SDS011;2286;51.570;7.090;2023-04-03T10:05:55;2.27;;;1.20;;
4547;SDS011;2286;51.570;7.090;2023-04-03T10:08:24;1.50;;;1.00;;
4547;SDS011;2286;51.570;7.090;2023-04-03T10:11:13;2.20;;;1.30;;
4547;SDS011;2286;51.570;7.090;2023-04-03T10:13:56;4.53;;;1.40;;
4547;SDS011;2286;51.570;7.090;2023-04-03T10:16:26;1.50;;;1.13;;
4547;SDS011;2286;51.570;7.090;2023-04-03T10:19:03;1.50;;;1.10;;
4547;SDS011;2286;51.570;7.090;2023-04-03T10:21:40;2.10;;;1.20;;
4547;SDS011;2286;51.570;7.090;2023-04-03T10:24:13;2.83;;;1.10;;
4547;SDS011;2286;51.570;7.090;2023-04-03T10:26:48;2.03;;;1.13;;
4547;SDS011;2286;51.570;7.090;2023-04-03T10:29:30;1.87;;;1.37;;
4547;SDS011;2286;51.570;7.090;2023-04-03T10:32:10;2.57;;;1.20;;
4547;SDS011;2286;51.570;7.090;2023-04-03T10:34:46;3.00;;;1.50;;
4547;SDS011;2286;51.570;7.090;2023-04-03T10:37:20;2.03;;;1.00;;
4547;SDS011;2286;51.570;7.090;2023-04-03T10:39:51;1.30;;;1.03;;
4547;SDS011;2286;51.570;7.090;2023-04-03T10:42:25;2.07;;;1.40;;
4547;SDS011;2286;51.570;7.090;2023-04-03T10:45:05;3.00;;;1.10;;
4547;SDS011;2286;51.570;7.090;2023-04-03T10:47:44;3.03;;;1.60;;
4547;SDS011;2286;51.570;7.090;2023-04-03T10:50:34;2.10;;;1.27;;
4547;SDS011;2286;51.570;7.090;2023-04-03T10:53:10;1.20;;;1.07;;
4547;SDS011;2286;51.570;7.090;2023-04-03T10:55:46;3.47;;;1.80;;
4547;SDS011;2286;51.570;7.090;2023-04-03T10:58:21;4.17;;;1.60;;
4547;SDS011;2286;51.570;7.090;2023-04-03T11:00:57;1.70;;;1.17;;
4547;SDS011;2286;51.570;7.090;2023-04-03T11:03:29;1.40;;;1.00;;
4547;SDS011;2286;51.570;7.090;2023-04-03T11:06:00;3.90;;;1.20;;
4547;SDS011;2286;51.570;7.090;2023-04-03T11:08:33;3.47;;;1.30;;
4547;SDS011;2286;51.570;7.090;2023-04-03T11:11:03;1.90;;;0.90;;
4547;SDS011;2286;51.570;7.090;2023-04-03T11:13:33;2.20;;;1.37;;
4547;SDS011;2286;51.570;7.090;2023-04-03T11:16:03;4.30;;;1.30;;
4547;SDS011;2286;51.570;7.090;2023-04-03T11:18:32;1.57;;;1.23;;
4547;SDS011;2286;51.570;7.090;2023-04-03T11:21:04;1.70;;;1.10;;
4547;SDS011;2286;51.570;7.090;2023-04-03T11:23:35;3.03;;;1.20;;
4547;SDS011;2286;51.570;7.090;2023-04-03T11:26:07;2.73;;;1.30;;
4547;SDS011;2286;51.570;7.090;2023-04-03T11:28:36;1.27;;;1.00;;
4547;SDS011;2286;51.570;7.090;2023-04-03T11:31:08;1.97;;;1.00;;
4547;SDS011;2286;51.570;7.090;2023-04-03T11:33:47;2.73;;;1.10;;
4547;SDS011;2286;51.570;7.090;2023-04-03T11:36:22;2.67;;;1.30;;
4547;SDS011;2286;51.570;7.090;2023-04-03T11:38:51;2.70;;;1.43;;
4547;SDS011;2286;51.570;7.090;2023-04-03T11:41:24;2.90;;;1.43;;
4547;SDS011;2286;51.570;7.090;2023-04-03T11:43:56;2.27;;;1.47;;
4547;SDS011;2286;51.570;7.090;2023-04-03T11:52:01;3.93;;;1.20;;
4547;SDS011;2286;51.570;7.090;2023-04-03T11:54:36;4.03;;;1.60;;
4547;SDS011;2286;51.570;7.090;2023-04-03T12:06:47;2.80;;;1.50;;
4547;SDS011;2286;51.570;7.090;2023-04-03T12:09:34;2.47;;;1.30;;
4547;SDS011;2286;51.570;7.090;2023-04-03T12:12:24;2.67;;;1.23;;
4547;SDS011;2286;51.570;7.090;2023-04-03T12:15:21;2.20;;;1.30;;
4547;SDS011;2286;51.570;7.090;2023-04-03T12:17:50;2.00;;;1.00;;
4547;SDS011;2286;51.570;7.090;2023-04-03T12:23:24;3.00;;;1.63;;
4547;SDS011;2286;51.570;7.090;2023-04-03T12:25:53;1.20;;;1.00;;
4547;SDS011;2286;51.570;7.090;2023-04-03T12:28:28;3.13;;;1.30;;
4547;SDS011;2286;51.570;7.090;2023-04-03T12:30:55;1.27;;;1.17;;
4547;SDS011;2286;51.570;7.090;2023-04-03T12:33:24;3.53;;;1.47;;
4547;SDS011;2286;51.570;7.090;2023-04-03T12:36:02;1.40;;;1.20;;
4547;SDS011;2286;51.570;7.090;2023-04-03T12:41:29;1.97;;;1.30;;
4547;SDS011;2286;51.570;7.090;2023-04-03T12:44:08;1.47;;;1.37;;
4547;SDS011;2286;51.570;7.090;2023-04-03T12:46:50;1.10;;;1.00;;
4547;SDS011;2286;51.570;7.090;2023-04-03T12:49:22;4.40;;;1.27;;
4547;SDS011;2286;51.570;7.090;2023-04-03T12:51:59;2.77;;;1.60;;
4547;SDS011;2286;51.570;7.090;2023-04-03T12:54:27;1.83;;;1.30;;
4547;SDS011;2286;51.570;7.090;2023-04-03T12:57:12;1.93;;;1.30;;
4547;SDS011;2286;51.570;7.090;2023-04-03T12:59:46;1.17;;;1.07;;
4547;SDS011;2286;51.570;7.090;2023-04-03T13:02:21;1.47;;;1.37;;
4547;SDS011;2286;51.570;7.090;2023-04-03T13:04:51;1.60;;;1.43;;
4547;SDS011;2286;51.570;7.090;2023-04-03T13:07:20;1.53;;;1.10;;
4547;SDS011;2286;51.570;7.090;2023-04-03T13:10:00;1.73;;;1.30;;
4547;SDS011;2286;51.570;7.090;2023-04-03T13:12:30;1.67;;;1.20;;
4547;SDS011;2286;51.570;7.090;2023-04-03T13:14:59;2.13;;;1.37;;
4547;SDS011;2286;51.570;7.090;2023-04-03T13:17:29;2.07;;;1.30;;
4547;SDS011;2286;51.570;7.090;2023-04-03T13:20:06;2.00;;;1.10;;
4547;SDS011;2286;51.570;7.090;2023-04-03T13:22:36;1.93;;;1.10;;
4547;SDS011;2286;51.570;7.090;2023-04-03T13:25:09;2.13;;;1.30;;
4547;SDS011;2286;51.570;7.090;2023-04-03T13:27:40;3.00;;;1.30;;
4547;SDS011;2286;51.570;7.090;2023-04-03T13:30:17;4.37;;;1.70;;
4547;SDS011;2286;51.570;7.090;2023-04-03T13:32:49;1.60;;;1.27;;
4547;SDS011;2286;51.570;7.090;2023-04-03T13:35:26;2.03;;;1.20;;
4547;SDS011;2286;51.570;7.090;2023-04-03T13:37:57;2.03;;;1.20;;
4547;SDS011;2286;51.570;7.090;2023-04-03T13:40:25;2.83;;;1.00;;
4547;SDS011;2286;51.570;7.090;2023-04-03T13:43:00;2.33;;;1.30;;
4547;SDS011;2286;51.570;7.090;2023-04-03T13:45:30;2.27;;;1.40;;
4547;SDS011;2286;51.570;7.090;2023-04-03T13:48:07;1.80;;;1.33;;
4547;SDS011;2286;51.570;7.090;2023-04-03T13:50:50;1.27;;;1.00;;
4547;SDS011;2286;51.570;7.090;2023-04-03T13:53:20;2.00;;;1.37;;
4547;SDS011;2286;51.570;7.090;2023-04-03T13:56:04;1.93;;;1.10;;
4547;SDS011;2286;51.570;7.090;2023-04-03T13:58:35;1.60;;;1.20;;
4547;SDS011;2286;51.570;7.090;2023-04-03T14:01:07;2.50;;;1.20;;
4547;SDS011;2286;51.570;7.090;2023-04-03T14:03:40;2.30;;;1.53;;
4547;SDS011;2286;51.570;7.090;2023-04-03T14:06:10;1.70;;;1.07;;
4547;SDS011;2286;51.570;7.090;2023-04-03T14:08:38;3.47;;;1.43;;
4547;SDS011;2286;51.570;7.090;2023-04-03T14:11:06;1.90;;;1.10;;
4547;SDS011;2286;51.570;7.090;2023-04-03T14:13:39;3.40;;;1.03;;
4547;SDS011;2286;51.570;7.090;2023-04-03T14:16:06;2.90;;;1.60;;
4547;SDS011;2286;51.570;7.090;2023-04-03T14:18:33;1.77;;;1.20;;
4547;SDS011;2286;51.570;7.090;2023-04-03T14:21:01;1.77;;;1.27;;
4547;SDS011;2286;51.570;7.090;2023-04-03T14:23:28;4.30;;;1.30;;
4547;SDS011;2286;51.570;7.090;2023-04-03T14:25:55;2.93;;;1.40;;
4547;SDS011;2286;51.570;7.090;2023-04-03T14:28:22;1.60;;;1.20;;
4547;SDS011;2286;51.570;7.090;2023-04-03T14:30:51;3.47;;;2.53;;
4547;SDS011;2286;51.570;7.090;2023-04-03T14:33:18;2.43;;;1.33;;
4547;SDS011;2286;51.570;7.090;2023-04-03T14:35:47;1.60;;;1.30;;
4547;SDS011;2286;51.570;7.090;2023-04-03T14:38:20;2.30;;;1.57;;
4547;SDS011;2286;51.570;7.090;2023-04-03T14:40:50;1.50;;;1.07;;
4547;SDS011;2286;51.570;7.090;2023-04-03T14:43:17;2.30;;;1.17;;
4547;SDS011;2286;51.570;7.090;2023-04-03T14:45:45;2.23;;;1.30;;
4547;SDS011;2286;51.570;7.090;2023-04-03T14:48:15;3.73;;;1.77;;
4547;SDS011;2286;51.570;7.090;2023-04-03T14:50:45;1.70;;;1.60;;
4547;SDS011;2286;51.570;7.090;2023-04-03T14:53:13;2.20;;;1.40;;
4547;SDS011;2286;51.570;7.090;2023-04-03T14:55:41;2.37;;;1.93;;
4547;SDS011;2286;51.570;7.090;2023-04-03T14:58:12;4.27;;;1.80;;
4547;SDS011;2286;51.570;7.090;2023-04-03T15:00:40;2.90;;;2.63;;
4547;SDS011;2286;51.570;7.090;2023-04-03T15:03:09;2.87;;;1.27;;
4547;SDS011;2286;51.570;7.090;2023-04-03T15:05:42;2.70;;;1.80;;
4547;SDS011;2286;51.570;7.090;2023-04-03T15:08:17;1.83;;;1.50;;
4547;SDS011;2286;51.570;7.090;2023-04-03T15:10:46;2.73;;;1.90;;
4547;SDS011;2286;51.570;7.090;2023-04-03T15:13:13;1.30;;;1.20;;
4547;SDS011;2286;51.570;7.090;2023-04-03T15:15:40;1.70;;;1.50;;
4547;SDS011;2286;51.570;7.090;2023-04-03T15:18:09;2.80;;;1.70;;
4547;SDS011;2286;51.570;7.090;2023-04-03T15:20:41;1.93;;;1.50;;
4547;SDS011;2286;51.570;7.090;2023-04-03T15:23:08;1.90;;;1.30;;
4547;SDS011;2286;51.570;7.090;2023-04-03T15:25:36;2.03;;;1.57;;
4547;SDS011;2286;51.570;7.090;2023-04-03T15:28:04;1.67;;;1.57;;
4547;SDS011;2286;51.570;7.090;2023-04-03T15:30:32;1.90;;;1.53;;
4547;SDS011;2286;51.570;7.090;2023-04-03T15:33:02;2.67;;;1.70;;
4547;SDS011;2286;51.570;7.090;2023-04-03T15:35:29;2.90;;;2.07;;
4547;SDS011;2286;51.570;7.090;2023-04-03T15:37:57;2.00;;;1.80;;
4547;SDS011;2286;51.570;7.090;2023-04-03T15:40:24;2.67;;;1.40;;
4547;SDS011;2286;51.570;7.090;2023-04-03T15:42:50;3.80;;;1.87;;
4547;SDS011;2286;51.570;7.090;2023-04-03T15:45:17;2.00;;;1.50;;
4547;SDS011;2286;51.570;7.090;2023-04-03T15:47:44;2.30;;;1.37;;
4547;SDS011;2286;51.570;7.090;2023-04-03T15:50:12;3.27;;;1.73;;
4547;SDS011;2286;51.570;7.090;2023-04-03T15:52:39;2.57;;;1.40;;
4547;SDS011;2286;51.570;7.090;2023-04-03T15:55:07;3.43;;;1.70;;